createdAt,value
2023-02-15T00:00:06.929Z,17.57
2023-02-15T00:02:33.885Z,16.97
2023-02-15T00:05:03.910Z,15.50
2023-02-15T00:07:31.098Z,15.97
2023-02-15T00:09:58.121Z,16.70
2023-02-15T00:12:25.126Z,16.30
2023-02-15T00:14:55.193Z,16.53
2023-02-15T00:17:22.632Z,16.90
2023-02-15T00:19:49.426Z,15.07
2023-02-15T00:22:17.406Z,15.17
2023-02-15T00:24:44.256Z,15.17
2023-02-15T00:27:11.046Z,15.57
2023-02-15T00:29:38.342Z,15.10
2023-02-15T00:32:05.390Z,14.97
2023-02-15T00:34:32.566Z,16.40
2023-02-15T00:36:59.437Z,15.13
2023-02-15T00:39:28.394Z,15.30
2023-02-15T00:42:00.504Z,15.13
2023-02-15T00:44:27.726Z,15.90
2023-02-15T00:46:57.148Z,15.37
2023-02-15T00:49:24.236Z,15.73
2023-02-15T00:51:51.110Z,16.23
2023-02-15T00:54:18.048Z,16.03
2023-02-15T00:56:45.311Z,16.90
2023-02-15T00:59:12.096Z,15.43
2023-02-15T01:01:39.259Z,15.80
2023-02-15T01:04:06.159Z,16.23
2023-02-15T01:06:33.103Z,16.70
2023-02-15T01:08:59.877Z,17.20
2023-02-15T01:11:26.680Z,16.63
2023-02-15T01:13:56.486Z,16.93
2023-02-15T01:16:25.338Z,15.87
2023-02-15T01:18:52.189Z,16.87
2023-02-15T01:21:22.100Z,15.93
2023-02-15T01:23:51.791Z,16.93
2023-02-15T01:26:21.102Z,16.63
2023-02-15T01:28:48.398Z,15.63
2023-02-15T01:31:18.237Z,16.50
2023-02-15T01:33:46.314Z,16.07
2023-02-15T01:36:13.955Z,16.90
2023-02-15T01:38:41.032Z,15.60
2023-02-15T01:41:28.117Z,16.33
2023-02-15T01:43:56.659Z,16.70
2023-02-15T01:46:36.004Z,15.30
2023-02-15T01:49:10.881Z,16.63
2023-02-15T01:51:40.659Z,15.60
2023-02-15T01:54:25.498Z,16.47
2023-02-15T01:56:53.970Z,15.67
2023-02-15T01:59:24.336Z,16.90
2023-02-15T02:01:55.609Z,16.40
2023-02-15T02:04:36.190Z,15.93
2023-02-15T02:07:04.677Z,16.87
2023-02-15T02:09:32.309Z,17.30
2023-02-15T02:12:02.890Z,17.07
2023-02-15T02:14:30.022Z,17.87
2023-02-15T02:17:10.603Z,17.20
2023-02-15T02:19:59.392Z,16.77
2023-02-15T02:23:09.068Z,17.53
2023-02-15T02:25:45.093Z,16.30
2023-02-15T02:28:11.854Z,16.80
2023-02-15T02:31:09.750Z,17.23
2023-02-15T02:33:49.511Z,16.70
2023-02-15T02:36:35.932Z,17.70
2023-02-15T02:39:24.596Z,18.50
2023-02-15T02:42:08.811Z,17.27
2023-02-15T02:44:44.532Z,17.07
2023-02-15T02:47:41.335Z,17.90
2023-02-15T02:50:23.220Z,17.17
2023-02-15T02:52:53.934Z,17.77
2023-02-15T02:55:30.731Z,17.63
2023-02-15T02:58:21.969Z,18.00
2023-02-15T03:00:48.750Z,17.93
2023-02-15T03:03:32.984Z,19.03
2023-02-15T03:06:06.207Z,17.27
2023-02-15T03:08:44.526Z,17.20
2023-02-15T03:11:13.160Z,18.57
2023-02-15T03:13:45.009Z,18.03
2023-02-15T03:16:29.571Z,16.83
2023-02-15T03:18:59.225Z,17.57
2023-02-15T03:21:32.665Z,18.50
2023-02-15T03:24:07.354Z,17.23
2023-02-15T03:26:37.118Z,16.60
2023-02-15T03:29:06.583Z,18.33
2023-02-15T03:31:38.690Z,18.77
2023-02-15T03:34:10.850Z,19.07
2023-02-15T03:36:57.163Z,18.73
2023-02-15T03:39:50.236Z,17.87
2023-02-15T03:42:34.262Z,17.40
2023-02-15T03:45:10.156Z,18.60
2023-02-15T03:47:42.764Z,17.93
2023-02-15T03:50:33.074Z,17.97
2023-02-15T03:53:04.622Z,18.03
2023-02-15T03:55:32.087Z,18.40
2023-02-15T03:58:17.580Z,18.30
2023-02-15T04:01:15.358Z,18.80
2023-02-15T04:03:53.172Z,17.00
2023-02-15T04:06:20.255Z,18.70
2023-02-15T04:09:05.944Z,19.20
2023-02-15T04:11:32.755Z,18.03
2023-02-15T04:13:59.608Z,18.43
2023-02-15T04:16:26.782Z,18.10
2023-02-15T04:19:14.654Z,18.00
2023-02-15T04:22:03.714Z,18.83
2023-02-15T04:24:49.160Z,18.53
2023-02-15T04:27:17.735Z,18.57
2023-02-15T04:29:44.655Z,18.67
2023-02-15T04:32:12.701Z,17.97
2023-02-15T04:34:39.513Z,19.30
2023-02-15T04:37:08.606Z,19.27
2023-02-15T04:39:36.164Z,19.33
2023-02-15T04:42:03.077Z,18.30
2023-02-15T04:44:29.848Z,18.17
2023-02-15T04:46:56.596Z,19.33
2023-02-15T04:49:23.348Z,19.07
2023-02-15T04:51:50.167Z,18.57
2023-02-15T04:54:17.032Z,18.67
2023-02-15T04:56:44.552Z,18.13
2023-02-15T04:59:12.372Z,18.77
2023-02-15T05:01:39.493Z,19.40
2023-02-15T05:04:06.470Z,18.90
2023-02-15T05:06:33.281Z,19.37
2023-02-15T05:09:00.377Z,18.80
2023-02-15T05:11:27.866Z,19.10
2023-02-15T05:13:54.692Z,20.30
2023-02-15T05:16:21.490Z,20.63
2023-02-15T05:18:50.727Z,20.00
2023-02-15T05:21:17.542Z,19.87
2023-02-15T05:23:44.294Z,20.03
2023-02-15T05:26:39.473Z,20.63
2023-02-15T05:29:06.774Z,19.03
2023-02-15T05:31:34.876Z,19.57
2023-02-15T05:34:03.003Z,19.83
2023-02-15T05:36:33.046Z,20.17
2023-02-15T05:38:59.809Z,21.63
2023-02-15T05:41:26.592Z,22.07
2023-02-15T05:43:55.852Z,20.10
2023-02-15T05:46:22.873Z,19.77
2023-02-15T05:48:49.777Z,20.40
2023-02-15T05:51:18.056Z,20.43
2023-02-15T05:53:45.078Z,19.70
2023-02-15T05:56:15.559Z,20.63
2023-02-15T05:58:43.316Z,20.23
2023-02-15T06:01:11.864Z,20.27
2023-02-15T06:03:39.230Z,19.87
2023-02-15T06:06:07.389Z,20.57
2023-02-15T06:08:35.812Z,19.73
2023-02-15T06:11:03.336Z,21.33
2023-02-15T06:13:30.592Z,20.97
2023-02-15T06:15:59.407Z,21.63
2023-02-15T06:18:26.674Z,21.83
2023-02-15T06:20:53.705Z,21.57
2023-02-15T06:23:20.576Z,20.40
2023-02-15T06:25:47.595Z,20.40
2023-02-15T06:28:14.874Z,20.30
2023-02-15T06:30:41.948Z,21.63
2023-02-15T06:33:08.880Z,20.57
2023-02-15T06:35:35.777Z,20.13
2023-02-15T06:38:02.644Z,20.67
2023-02-15T06:40:29.430Z,19.93
2023-02-15T06:42:56.194Z,20.73
2023-02-15T06:45:22.992Z,20.53
2023-02-15T06:47:49.859Z,20.63
2023-02-15T06:50:17.096Z,20.10
2023-02-15T06:52:43.900Z,21.17
2023-02-15T06:55:10.794Z,20.83
2023-02-15T06:57:37.658Z,21.50
2023-02-15T07:00:06.289Z,21.50
2023-02-15T07:02:34.365Z,20.03
2023-02-15T07:05:01.241Z,20.93
2023-02-15T07:07:28.142Z,21.07
2023-02-15T07:09:54.917Z,20.63
2023-02-15T07:12:40.267Z,21.97
2023-02-15T07:15:08.661Z,20.53
2023-02-15T07:17:36.616Z,19.83
2023-02-15T07:20:09.070Z,20.43
2023-02-15T07:22:37.331Z,21.17
2023-02-15T07:25:10.002Z,20.77
2023-02-15T07:27:37.180Z,20.70
2023-02-15T07:30:05.892Z,21.07
2023-02-15T07:32:34.480Z,21.13
2023-02-15T07:35:01.947Z,19.20
2023-02-15T07:37:29.085Z,20.17
2023-02-15T07:39:55.868Z,20.53
2023-02-15T07:42:23.426Z,18.77
2023-02-15T07:44:50.353Z,19.97
2023-02-15T07:47:17.379Z,19.70
2023-02-15T07:49:44.254Z,19.43
2023-02-15T07:52:11.002Z,18.90
2023-02-15T07:54:37.821Z,19.47
2023-02-15T07:57:05.131Z,19.33
2023-02-15T07:59:32.483Z,18.30
2023-02-15T08:01:59.477Z,18.30
2023-02-15T08:04:26.389Z,19.37
2023-02-15T08:06:55.434Z,18.20
2023-02-15T08:09:22.821Z,17.83
2023-02-15T08:11:50.545Z,17.77
2023-02-15T08:14:19.898Z,18.73
2023-02-15T08:16:51.055Z,18.27
2023-02-15T08:19:30.448Z,18.30
2023-02-15T08:22:02.938Z,19.40
2023-02-15T08:24:35.507Z,17.63
2023-02-15T08:27:08.443Z,17.60
2023-02-15T08:29:37.313Z,18.33
2023-02-15T08:32:07.743Z,18.03
2023-02-15T08:34:37.452Z,17.13
2023-02-15T08:37:04.437Z,17.80
2023-02-15T08:39:31.382Z,17.23
2023-02-15T08:41:58.350Z,18.37
2023-02-15T08:44:26.126Z,17.43
2023-02-15T08:46:53.021Z,17.93
2023-02-15T08:49:25.146Z,16.83
2023-02-15T08:51:52.500Z,16.00
2023-02-15T08:54:23.003Z,16.80
2023-02-15T08:56:50.372Z,16.30
2023-02-15T08:59:19.588Z,18.20
2023-02-15T09:01:49.041Z,17.23
2023-02-15T09:04:18.150Z,17.17
2023-02-15T09:06:49.150Z,16.37
2023-02-15T09:09:20.858Z,16.33
2023-02-15T09:11:56.039Z,16.43
2023-02-15T09:14:28.852Z,17.33
2023-02-15T09:16:55.876Z,16.10
2023-02-15T09:19:29.507Z,15.67
2023-02-15T09:21:56.528Z,15.53
2023-02-15T09:24:24.563Z,16.23
2023-02-15T09:26:52.029Z,15.90
2023-02-15T09:29:20.627Z,16.17
2023-02-15T09:31:51.160Z,15.47
2023-02-15T09:34:24.344Z,14.80
2023-02-15T09:36:52.321Z,14.77
2023-02-15T09:39:27.838Z,15.63
2023-02-15T09:42:15.999Z,14.37
2023-02-15T09:45:20.009Z,14.30
2023-02-15T09:48:09.735Z,13.80
2023-02-15T09:50:50.055Z,14.77
2023-02-15T09:53:48.066Z,14.57
2023-02-15T09:56:30.271Z,15.00
2023-02-15T09:59:36.917Z,14.50
2023-02-15T10:02:37.020Z,14.57
2023-02-15T10:05:12.872Z,14.87
2023-02-15T10:07:39.821Z,13.97
2023-02-15T10:10:35.324Z,14.00
2023-02-15T10:13:12.481Z,13.80
2023-02-15T10:16:03.436Z,13.67
2023-02-15T10:18:33.419Z,13.53
2023-02-15T10:21:36.286Z,13.67
2023-02-15T10:24:12.493Z,13.03
2023-02-15T10:26:48.438Z,13.83
2023-02-15T10:29:48.890Z,13.77
2023-02-15T10:32:34.397Z,13.03
2023-02-15T10:35:44.855Z,13.47
2023-02-15T10:38:26.752Z,13.87
2023-02-15T10:41:10.744Z,13.63
2023-02-15T10:44:02.048Z,13.23
2023-02-15T10:46:48.328Z,13.87
2023-02-15T10:49:54.566Z,13.60
2023-02-15T10:52:31.578Z,12.90
2023-02-15T10:55:38.447Z,12.20
2023-02-15T10:58:27.502Z,12.53
2023-02-15T11:01:27.556Z,12.20
2023-02-15T11:04:07.667Z,12.33
2023-02-15T11:06:37.815Z,12.47
2023-02-15T11:09:19.391Z,11.83
2023-02-15T11:11:54.893Z,11.60
2023-02-15T11:14:47.310Z,11.90
2023-02-15T11:17:23.263Z,12.07
2023-02-15T11:19:50.557Z,11.13
2023-02-15T11:22:18.254Z,11.37
2023-02-15T11:24:48.520Z,12.10
2023-02-15T11:27:23.436Z,12.07
2023-02-15T11:30:11.743Z,12.43
2023-02-15T11:32:51.857Z,11.93
2023-02-15T11:35:29.527Z,10.83
2023-02-15T11:38:05.253Z,11.60
2023-02-15T11:40:38.429Z,12.20
2023-02-15T11:43:14.709Z,12.37
2023-02-15T11:45:44.740Z,11.47
2023-02-15T11:48:14.646Z,11.63
2023-02-15T11:50:43.465Z,12.00
2023-02-15T11:53:16.610Z,10.60
2023-02-15T11:55:45.456Z,11.83
2023-02-15T11:58:22.406Z,12.40
2023-02-15T12:00:52.987Z,13.00
2023-02-15T12:03:30.293Z,11.40
2023-02-15T12:06:04.597Z,11.80
2023-02-15T12:08:50.474Z,12.80
2023-02-15T12:11:23.552Z,11.37
2023-02-15T12:14:02.521Z,11.87
2023-02-15T12:16:33.154Z,11.17
2023-02-15T12:19:02.236Z,12.80
2023-02-15T12:21:40.769Z,12.43
2023-02-15T12:24:23.010Z,11.67
2023-02-15T12:27:14.840Z,11.03
2023-02-15T12:29:52.207Z,11.67
2023-02-15T12:32:27.742Z,11.83
2023-02-15T12:35:10.755Z,11.67
2023-02-15T12:37:39.957Z,11.50
2023-02-15T12:40:31.392Z,11.30
2023-02-15T12:42:59.376Z,12.40
2023-02-15T12:45:32.524Z,12.13
2023-02-15T12:48:22.230Z,11.93
2023-02-15T12:50:58.051Z,11.37
2023-02-15T12:53:42.940Z,12.07
2023-02-15T12:56:12.358Z,11.67
2023-02-15T12:58:45.063Z,10.90
2023-02-15T13:01:27.696Z,11.23
2023-02-15T13:04:14.092Z,11.03
2023-02-15T13:06:53.193Z,11.10
2023-02-15T13:09:33.948Z,11.90
2023-02-15T13:12:24.702Z,11.00
2023-02-15T13:14:55.994Z,10.73
2023-02-15T13:17:36.858Z,10.90
2023-02-15T13:20:17.746Z,11.07
2023-02-15T13:22:47.719Z,11.53
2023-02-15T13:25:26.841Z,10.57
2023-02-15T13:27:58.997Z,11.13
2023-02-15T13:30:39.352Z,11.83
2023-02-15T13:33:13.140Z,10.87
2023-02-15T13:36:02.675Z,11.47
2023-02-15T13:39:09.658Z,10.93
2023-02-15T13:41:54.478Z,11.70
2023-02-15T13:44:52.683Z,11.17
2023-02-15T13:47:57.300Z,11.63
2023-02-15T13:51:00.249Z,12.23
2023-02-15T13:54:00.396Z,11.90
2023-02-15T13:56:57.996Z,11.47
2023-02-15T13:59:33.615Z,11.87
2023-02-15T14:02:55.261Z,12.30
2023-02-15T14:05:49.680Z,11.33
2023-02-15T14:08:38.218Z,11.83
2023-02-15T14:11:19.743Z,12.03
2023-02-15T14:13:47.201Z,11.93
2023-02-15T14:17:05.696Z,11.53
2023-02-15T14:19:47.145Z,12.50
2023-02-15T14:22:29.029Z,12.77
2023-02-15T14:25:19.500Z,10.57
2023-02-15T14:28:05.819Z,11.97
2023-02-15T14:30:46.338Z,11.57
2023-02-15T14:33:16.626Z,10.87
2023-02-15T14:35:45.045Z,11.20
2023-02-15T14:38:53.472Z,11.33
2023-02-15T14:41:54.844Z,10.80
2023-02-15T14:44:34.888Z,11.77
2023-02-15T14:47:13.555Z,11.40
2023-02-15T14:49:41.499Z,11.83
2023-02-15T14:52:11.636Z,11.63
2023-02-15T14:54:38.884Z,11.83
2023-02-15T14:57:07.405Z,11.03
2023-02-15T14:59:58.340Z,12.33
2023-02-15T15:02:27.398Z,11.43
2023-02-15T15:05:08.259Z,11.37
2023-02-15T15:07:52.115Z,11.40
2023-02-15T15:10:19.143Z,11.57
2023-02-15T15:12:51.654Z,11.60
2023-02-15T15:15:28.453Z,10.73
2023-02-15T15:18:08.547Z,11.23
2023-02-15T15:20:40.830Z,11.60
2023-02-15T15:23:44.276Z,11.37
2023-02-15T15:26:29.912Z,12.07
2023-02-15T15:28:59.452Z,11.03
2023-02-15T15:31:34.506Z,10.53
2023-02-15T15:34:01.454Z,11.13
2023-02-15T15:36:37.885Z,10.50
2023-02-15T15:39:42.929Z,11.03
2023-02-15T15:42:21.968Z,11.07
2023-02-15T15:45:14.847Z,10.90
2023-02-15T15:48:06.628Z,11.67
2023-02-15T15:50:34.529Z,11.07
2023-02-15T15:53:03.436Z,11.33
2023-02-15T15:55:33.096Z,10.93
2023-02-15T15:58:06.111Z,10.33
2023-02-15T16:00:51.083Z,11.13
2023-02-15T16:03:24.615Z,10.87
2023-02-15T16:05:59.551Z,10.97
2023-02-15T16:08:39.842Z,11.30
2023-02-15T16:11:18.991Z,10.97
2023-02-15T16:13:46.292Z,11.03
2023-02-15T16:16:15.387Z,11.10
2023-02-15T16:18:45.906Z,11.73
2023-02-15T16:21:24.100Z,11.50
2023-02-15T16:24:16.937Z,11.07
2023-02-15T16:27:12.236Z,10.73
2023-02-15T16:29:39.532Z,10.83
2023-02-15T16:32:21.585Z,11.60
2023-02-15T16:35:01.884Z,10.80
2023-02-15T16:37:36.208Z,10.93
2023-02-15T16:40:03.576Z,11.93
2023-02-15T16:42:30.442Z,11.43
2023-02-15T16:45:07.115Z,11.70
2023-02-15T16:47:40.057Z,12.30
2023-02-15T16:50:23.201Z,12.30
2023-02-15T16:52:50.631Z,11.93
2023-02-15T16:55:26.028Z,12.20
2023-02-15T16:57:58.740Z,13.07
2023-02-15T17:00:27.910Z,12.60
2023-02-15T17:03:00.893Z,13.77
2023-02-15T17:05:43.814Z,13.07
2023-02-15T17:08:21.101Z,14.17
2023-02-15T17:11:06.059Z,14.50
2023-02-15T17:13:33.043Z,15.50
2023-02-15T17:16:00.624Z,14.27
2023-02-15T17:18:40.998Z,13.87
2023-02-15T17:21:14.497Z,13.93
2023-02-15T17:23:43.879Z,14.20
2023-02-15T17:26:25.784Z,14.07
2023-02-15T17:29:11.856Z,15.37
2023-02-15T17:31:39.641Z,13.80
2023-02-15T17:34:06.891Z,14.57
2023-02-15T17:36:34.140Z,13.67
2023-02-15T17:39:08.098Z,14.03
2023-02-15T17:41:38.479Z,13.33
2023-02-15T17:44:05.486Z,12.40
2023-02-15T17:46:38.003Z,12.90
2023-02-15T17:49:05.610Z,13.47
2023-02-15T17:51:35.587Z,13.53
2023-02-15T17:54:21.991Z,14.10
2023-02-15T17:56:49.504Z,13.30
2023-02-15T17:59:16.386Z,14.87
2023-02-15T18:02:06.239Z,14.77
2023-02-15T18:04:56.274Z,14.20
2023-02-15T18:07:41.813Z,13.57
2023-02-15T18:10:36.944Z,12.97
2023-02-15T18:13:04.443Z,13.27
2023-02-15T18:15:31.584Z,14.07
2023-02-15T18:17:58.571Z,13.50
2023-02-15T18:20:34.242Z,14.43
2023-02-15T18:23:02.240Z,14.87
2023-02-15T18:25:29.261Z,14.70
2023-02-15T18:27:57.931Z,13.37
2023-02-15T18:30:28.112Z,14.07
2023-02-15T18:32:57.631Z,15.10
2023-02-15T18:35:28.822Z,14.27
2023-02-15T18:37:56.368Z,14.10
2023-02-15T18:40:26.851Z,14.10
2023-02-15T18:42:54.557Z,13.83
2023-02-15T18:45:32.574Z,14.70
2023-02-15T18:47:59.638Z,14.73
2023-02-15T18:50:31.012Z,14.20
2023-02-15T18:52:58.252Z,15.20
2023-02-15T18:55:28.073Z,15.27
2023-02-15T18:57:57.337Z,14.70
2023-02-15T19:00:28.380Z,15.50
2023-02-15T19:02:56.594Z,14.97
2023-02-15T19:05:24.797Z,15.10
2023-02-15T19:07:52.127Z,15.47
2023-02-15T19:10:22.434Z,15.23
2023-02-15T19:12:50.293Z,15.97
2023-02-15T19:15:22.457Z,18.90
2023-02-15T19:17:50.160Z,22.20
2023-02-15T19:20:19.755Z,18.47
2023-02-15T19:22:51.784Z,14.93
2023-02-15T19:25:25.534Z,16.87
2023-02-15T19:27:54.081Z,16.10
2023-02-15T19:30:28.707Z,15.87
2023-02-15T19:32:57.019Z,15.00
2023-02-15T19:35:26.891Z,15.40
2023-02-15T19:37:56.814Z,14.97
2023-02-15T19:40:26.001Z,15.90
2023-02-15T19:42:53.308Z,15.67
2023-02-15T19:45:23.769Z,15.87
2023-02-15T19:47:52.848Z,16.20
2023-02-15T19:50:22.772Z,16.53
2023-02-15T19:52:53.819Z,15.40
2023-02-15T19:55:27.923Z,14.70
2023-02-15T19:57:56.983Z,14.93
2023-02-15T20:00:27.138Z,14.63
2023-02-15T20:02:59.405Z,16.90
2023-02-15T20:05:29.316Z,15.93
2023-02-15T20:07:58.239Z,17.03
2023-02-15T20:10:30.185Z,16.50
2023-02-15T20:12:58.287Z,16.63
2023-02-15T20:15:28.419Z,17.17
2023-02-15T20:18:00.342Z,17.37
2023-02-15T20:20:34.340Z,15.60
2023-02-15T20:23:02.224Z,17.17
2023-02-15T20:25:31.867Z,17.27
2023-02-15T20:28:01.839Z,19.63
2023-02-15T20:30:32.016Z,20.87
2023-02-15T20:32:59.277Z,20.07
2023-02-15T20:35:31.936Z,21.00
2023-02-15T20:38:00.650Z,19.30
2023-02-15T20:40:31.113Z,19.67
2023-02-15T20:42:58.412Z,19.10
2023-02-15T20:45:28.882Z,18.47
2023-02-15T20:47:57.084Z,17.90
2023-02-15T20:50:30.257Z,19.20
2023-02-15T20:52:59.690Z,17.90
2023-02-15T20:55:32.716Z,19.60
2023-02-15T20:57:59.968Z,18.03
2023-02-15T21:00:29.784Z,18.13
2023-02-15T21:03:01.253Z,18.23
2023-02-15T21:05:31.382Z,19.17
2023-02-15T21:08:01.796Z,18.40
2023-02-15T21:10:31.948Z,17.87
2023-02-15T21:13:01.170Z,18.73
2023-02-15T21:15:39.728Z,18.67
2023-02-15T21:18:14.501Z,18.20
2023-02-15T21:20:46.603Z,17.80
2023-02-15T21:23:16.919Z,18.17
2023-02-15T21:25:44.769Z,19.20
2023-02-15T21:28:18.928Z,17.67
2023-02-15T21:30:46.448Z,18.47
2023-02-15T21:33:13.738Z,18.63
2023-02-15T21:35:41.198Z,17.93
2023-02-15T21:38:13.427Z,19.30
2023-02-15T21:40:41.176Z,19.57
2023-02-15T21:43:43.862Z,18.60
2023-02-15T21:46:38.913Z,17.80
2023-02-15T21:49:12.452Z,16.53
2023-02-15T21:51:58.638Z,16.40
2023-02-15T21:54:27.706Z,17.13
2023-02-15T21:56:55.673Z,16.97
2023-02-15T21:59:24.588Z,17.97
2023-02-15T22:01:53.198Z,18.00
2023-02-15T22:04:28.682Z,17.13
2023-02-15T22:06:59.203Z,17.90
2023-02-15T22:09:29.073Z,17.13
2023-02-15T22:11:58.414Z,17.50
2023-02-15T22:14:36.453Z,18.07
2023-02-15T22:17:10.272Z,17.90
2023-02-15T22:19:40.430Z,17.93
2023-02-15T22:22:07.311Z,18.63
2023-02-15T22:24:37.024Z,18.97
2023-02-15T22:27:05.417Z,18.50
2023-02-15T22:29:33.637Z,19.60
2023-02-15T22:32:09.918Z,19.57
2023-02-15T22:34:37.050Z,19.00
2023-02-15T22:37:04.652Z,17.87
2023-02-15T22:39:32.103Z,19.50
2023-02-15T22:42:02.559Z,17.93
2023-02-15T22:44:33.530Z,17.50
2023-02-15T22:47:05.022Z,17.30
2023-02-15T22:49:32.108Z,16.53
2023-02-15T22:51:59.280Z,16.73
2023-02-15T22:54:26.480Z,15.50
2023-02-15T22:56:56.938Z,15.20
2023-02-15T22:59:34.484Z,16.57
2023-02-15T23:02:06.534Z,16.03
2023-02-15T23:04:33.973Z,17.50
2023-02-15T23:07:01.085Z,17.40
2023-02-15T23:09:37.064Z,17.43
2023-02-15T23:12:13.764Z,16.33
2023-02-15T23:14:40.856Z,15.37
2023-02-15T23:17:12.314Z,15.87
2023-02-15T23:19:39.597Z,16.50
2023-02-15T23:22:22.071Z,14.83
2023-02-15T23:24:54.805Z,15.20
2023-02-15T23:27:40.390Z,16.47
2023-02-15T23:30:15.382Z,16.63
2023-02-15T23:32:45.694Z,16.77
2023-02-15T23:35:27.374Z,15.47
2023-02-15T23:37:54.515Z,14.63
2023-02-15T23:40:53.211Z,16.23
2023-02-15T23:43:25.455Z,15.63
2023-02-15T23:45:52.890Z,16.10
2023-02-15T23:48:30.387Z,15.93
2023-02-15T23:50:58.775Z,15.10
2023-02-15T23:53:26.130Z,14.50
2023-02-15T23:55:53.949Z,16.10
2023-02-15T23:58:30.184Z,15.50
